< < Back
Terminal Aerodrome Forecast


Current Version              Previous Versions:   1  2  3  4  5  6  7  8  9  

Terminal Aerodrome Forecast

643
FTUS42 KTAE 260535
TAFVLD
TAF
KVLD 260535Z 2606/2706 00000KT P6SM SKC
     FM261500 08010KT P6SM SCT250=

Latest METAR

164
SAUS70 KWBC 261200 RRA
MTRVLD
METAR KVLD 261153Z 05004KT 10SM CLR 23/23 A3007 RMK AO2 SLP188 T02330233
10244 20228 53006


USA.gov is the U.S. government's official web portal to all federal, state and local government web resources and services.